sensor_id;sensor_type;location;lat;lon;timestamp;P1;durP1;ratioP1;P2;durP2;ratioP2
31872;SDS011;22407;42.820;23.374;2023-03-19T00:01:41;8.33;;;3.77;;
31872;SDS011;22407;42.820;23.374;2023-03-19T00:04:06;12.30;;;4.47;;
31872;SDS011;22407;42.820;23.374;2023-03-19T00:06:32;12.63;;;4.07;;
31872;SDS011;22407;42.820;23.374;2023-03-19T00:08:57;10.70;;;3.80;;
31872;SDS011;22407;42.820;23.374;2023-03-19T00:11:22;10.90;;;4.60;;
31872;SDS011;22407;42.820;23.374;2023-03-19T00:13:48;9.00;;;4.03;;
31872;SDS011;22407;42.820;23.374;2023-03-19T00:16:13;8.27;;;3.70;;
31872;SDS011;22407;42.820;23.374;2023-03-19T00:18:38;10.10;;;3.87;;
31872;SDS011;22407;42.820;23.374;2023-03-19T00:21:04;8.00;;;4.23;;
31872;SDS011;22407;42.820;23.374;2023-03-19T00:23:29;12.00;;;5.70;;
31872;SDS011;22407;42.820;23.374;2023-03-19T00:25:55;7.33;;;3.20;;
31872;SDS011;22407;42.820;23.374;2023-03-19T00:28:20;6.97;;;3.30;;
31872;SDS011;22407;42.820;23.374;2023-03-19T00:30:45;7.57;;;3.80;;
31872;SDS011;22407;42.820;23.374;2023-03-19T00:33:11;7.10;;;3.47;;
31872;SDS011;22407;42.820;23.374;2023-03-19T00:35:37;8.80;;;4.10;;
31872;SDS011;22407;42.820;23.374;2023-03-19T00:38:03;10.15;;;3.15;;
31872;SDS011;22407;42.820;23.374;2023-03-19T00:40:28;9.40;;;3.57;;
31872;SDS011;22407;42.820;23.374;2023-03-19T00:42:54;7.38;;;3.72;;
31872;SDS011;22407;42.820;23.374;2023-03-19T00:45:19;8.73;;;3.90;;
31872;SDS011;22407;42.820;23.374;2023-03-19T00:47:45;10.63;;;4.13;;
31872;SDS011;22407;42.820;23.374;2023-03-19T00:50:10;7.20;;;3.90;;
31872;SDS011;22407;42.820;23.374;2023-03-19T00:52:36;10.57;;;4.70;;
31872;SDS011;22407;42.820;23.374;2023-03-19T00:55:01;10.80;;;3.87;;
31872;SDS011;22407;42.820;23.374;2023-03-19T00:57:26;8.63;;;3.40;;
31872;SDS011;22407;42.820;23.374;2023-03-19T00:59:52;8.87;;;3.40;;
31872;SDS011;22407;42.820;23.374;2023-03-19T01:02:17;7.60;;;3.70;;
31872;SDS011;22407;42.820;23.374;2023-03-19T01:04:42;8.63;;;3.30;;
31872;SDS011;22407;42.820;23.374;2023-03-19T01:07:08;9.00;;;3.30;;
31872;SDS011;22407;42.820;23.374;2023-03-19T01:09:33;7.23;;;3.10;;
31872;SDS011;22407;42.820;23.374;2023-03-19T01:11:59;7.90;;;3.50;;
31872;SDS011;22407;42.820;23.374;2023-03-19T01:14:28;51.33;;;18.83;;
31872;SDS011;22407;42.820;23.374;2023-03-19T01:16:53;30.37;;;11.83;;
31872;SDS011;22407;42.820;23.374;2023-03-19T01:19:19;10.47;;;4.87;;
31872;SDS011;22407;42.820;23.374;2023-03-19T01:21:44;10.37;;;4.33;;
31872;SDS011;22407;42.820;23.374;2023-03-19T01:24:10;10.13;;;4.27;;
31872;SDS011;22407;42.820;23.374;2023-03-19T01:26:35;10.18;;;4.18;;
31872;SDS011;22407;42.820;23.374;2023-03-19T01:29:01;10.27;;;3.70;;
31872;SDS011;22407;42.820;23.374;2023-03-19T01:31:26;9.60;;;4.30;;
31872;SDS011;22407;42.820;23.374;2023-03-19T01:33:51;10.57;;;4.07;;
31872;SDS011;22407;42.820;23.374;2023-03-19T01:36:17;10.20;;;4.37;;
31872;SDS011;22407;42.820;23.374;2023-03-19T01:38:42;10.50;;;4.73;;
31872;SDS011;22407;42.820;23.374;2023-03-19T01:41:07;8.80;;;3.73;;
31872;SDS011;22407;42.820;23.374;2023-03-19T01:43:33;12.48;;;4.30;;
31872;SDS011;22407;42.820;23.374;2023-03-19T01:46:00;13.63;;;4.20;;
31872;SDS011;22407;42.820;23.374;2023-03-19T01:48:39;10.35;;;4.05;;
31872;SDS011;22407;42.820;23.374;2023-03-19T01:51:05;17.10;;;4.80;;
31872;SDS011;22407;42.820;23.374;2023-03-19T01:53:32;11.43;;;5.15;;
31872;SDS011;22407;42.820;23.374;2023-03-19T01:56:00;8.60;;;3.87;;
31872;SDS011;22407;42.820;23.374;2023-03-19T01:58:27;9.60;;;3.28;;
31872;SDS011;22407;42.820;23.374;2023-03-19T02:00:52;9.47;;;3.73;;
31872;SDS011;22407;42.820;23.374;2023-03-19T02:03:18;7.45;;;3.33;;
31872;SDS011;22407;42.820;23.374;2023-03-19T02:05:44;9.37;;;4.30;;
31872;SDS011;22407;42.820;23.374;2023-03-19T02:08:11;10.55;;;4.57;;
31872;SDS011;22407;42.820;23.374;2023-03-19T02:10:37;12.27;;;4.63;;
31872;SDS011;22407;42.820;23.374;2023-03-19T02:13:03;12.43;;;4.97;;
31872;SDS011;22407;42.820;23.374;2023-03-19T02:15:28;10.60;;;4.87;;
31872;SDS011;22407;42.820;23.374;2023-03-19T02:17:53;8.80;;;4.00;;
31872;SDS011;22407;42.820;23.374;2023-03-19T02:20:33;13.77;;;5.27;;
31872;SDS011;22407;42.820;23.374;2023-03-19T02:25:38;10.10;;;4.95;;
31872;SDS011;22407;42.820;23.374;2023-03-19T02:28:06;10.77;;;5.38;;
31872;SDS011;22407;42.820;23.374;2023-03-19T02:30:31;12.15;;;5.50;;
31872;SDS011;22407;42.820;23.374;2023-03-19T02:32:57;10.87;;;5.10;;
31872;SDS011;22407;42.820;23.374;2023-03-19T02:35:22;10.10;;;4.60;;
31872;SDS011;22407;42.820;23.374;2023-03-19T02:37:48;10.17;;;5.00;;
31872;SDS011;22407;42.820;23.374;2023-03-19T02:40:23;11.23;;;5.20;;
31872;SDS011;22407;42.820;23.374;2023-03-19T02:42:50;11.30;;;4.53;;
31872;SDS011;22407;42.820;23.374;2023-03-19T02:45:15;12.03;;;5.47;;
31872;SDS011;22407;42.820;23.374;2023-03-19T02:47:41;12.57;;;5.07;;
31872;SDS011;22407;42.820;23.374;2023-03-19T02:50:06;11.10;;;5.60;;
31872;SDS011;22407;42.820;23.374;2023-03-19T02:52:32;11.07;;;5.45;;
31872;SDS011;22407;42.820;23.374;2023-03-19T02:54:58;10.93;;;5.27;;
31872;SDS011;22407;42.820;23.374;2023-03-19T02:57:23;12.70;;;6.07;;
31872;SDS011;22407;42.820;23.374;2023-03-19T02:59:48;12.60;;;6.23;;
31872;SDS011;22407;42.820;23.374;2023-03-19T03:02:13;11.30;;;5.80;;
31872;SDS011;22407;42.820;23.374;2023-03-19T03:04:39;11.60;;;5.82;;
31872;SDS011;22407;42.820;23.374;2023-03-19T03:07:04;12.33;;;5.90;;
31872;SDS011;22407;42.820;23.374;2023-03-19T03:09:30;12.03;;;5.83;;
31872;SDS011;22407;42.820;23.374;2023-03-19T03:11:55;12.18;;;5.82;;
31872;SDS011;22407;42.820;23.374;2023-03-19T03:14:21;13.03;;;6.73;;
31872;SDS011;22407;42.820;23.374;2023-03-19T03:16:46;14.40;;;6.17;;
31872;SDS011;22407;42.820;23.374;2023-03-19T03:19:12;12.80;;;6.10;;
31872;SDS011;22407;42.820;23.374;2023-03-19T03:21:38;11.47;;;6.23;;
31872;SDS011;22407;42.820;23.374;2023-03-19T03:24:03;12.53;;;5.90;;
31872;SDS011;22407;42.820;23.374;2023-03-19T03:26:29;12.43;;;5.83;;
31872;SDS011;22407;42.820;23.374;2023-03-19T03:28:55;14.10;;;6.03;;
31872;SDS011;22407;42.820;23.374;2023-03-19T03:31:20;14.65;;;6.95;;
31872;SDS011;22407;42.820;23.374;2023-03-19T03:33:46;15.80;;;7.23;;
31872;SDS011;22407;42.820;23.374;2023-03-19T03:36:11;13.53;;;6.27;;
31872;SDS011;22407;42.820;23.374;2023-03-19T03:38:37;11.45;;;5.97;;
31872;SDS011;22407;42.820;23.374;2023-03-19T03:41:02;13.47;;;5.97;;
31872;SDS011;22407;42.820;23.374;2023-03-19T03:43:28;13.70;;;6.85;;
31872;SDS011;22407;42.820;23.374;2023-03-19T03:45:54;14.83;;;7.30;;
31872;SDS011;22407;42.820;23.374;2023-03-19T03:48:19;13.73;;;7.07;;
31872;SDS011;22407;42.820;23.374;2023-03-19T03:50:46;15.88;;;7.53;;
31872;SDS011;22407;42.820;23.374;2023-03-19T03:53:11;13.50;;;7.68;;
31872;SDS011;22407;42.820;23.374;2023-03-19T03:55:37;12.70;;;6.60;;
31872;SDS011;22407;42.820;23.374;2023-03-19T03:58:02;14.10;;;6.67;;
31872;SDS011;22407;42.820;23.374;2023-03-19T04:00:28;11.53;;;5.20;;
31872;SDS011;22407;42.820;23.374;2023-03-19T04:02:53;12.30;;;6.43;;
31872;SDS011;22407;42.820;23.374;2023-03-19T04:05:19;12.50;;;6.00;;
31872;SDS011;22407;42.820;23.374;2023-03-19T04:07:45;14.55;;;6.68;;
31872;SDS011;22407;42.820;23.374;2023-03-19T04:10:11;13.68;;;6.30;;
31872;SDS011;22407;42.820;23.374;2023-03-19T04:12:38;13.00;;;5.57;;
31872;SDS011;22407;42.820;23.374;2023-03-19T04:15:04;13.20;;;6.30;;
31872;SDS011;22407;42.820;23.374;2023-03-19T04:17:29;11.90;;;5.80;;
31872;SDS011;22407;42.820;23.374;2023-03-19T04:19:55;11.50;;;6.00;;
31872;SDS011;22407;42.820;23.374;2023-03-19T04:22:20;11.50;;;6.83;;
31872;SDS011;22407;42.820;23.374;2023-03-19T04:24:45;13.97;;;6.50;;
31872;SDS011;22407;42.820;23.374;2023-03-19T04:27:11;12.43;;;6.67;;
31872;SDS011;22407;42.820;23.374;2023-03-19T04:29:36;11.40;;;5.70;;
31872;SDS011;22407;42.820;23.374;2023-03-19T04:32:01;12.30;;;6.30;;
31872;SDS011;22407;42.820;23.374;2023-03-19T04:34:27;14.27;;;6.60;;
31872;SDS011;22407;42.820;23.374;2023-03-19T04:36:52;14.30;;;6.73;;
31872;SDS011;22407;42.820;23.374;2023-03-19T04:39:17;17.80;;;7.67;;
31872;SDS011;22407;42.820;23.374;2023-03-19T04:41:43;19.25;;;9.48;;
31872;SDS011;22407;42.820;23.374;2023-03-19T04:44:09;15.30;;;7.47;;
31872;SDS011;22407;42.820;23.374;2023-03-19T04:46:34;13.93;;;7.07;;
31872;SDS011;22407;42.820;23.374;2023-03-19T04:49:00;21.02;;;8.68;;
31872;SDS011;22407;42.820;23.374;2023-03-19T04:51:25;45.73;;;17.70;;
31872;SDS011;22407;42.820;23.374;2023-03-19T04:53:51;26.47;;;11.57;;
31872;SDS011;22407;42.820;23.374;2023-03-19T04:56:16;30.90;;;13.37;;
31872;SDS011;22407;42.820;23.374;2023-03-19T04:58:43;25.83;;;12.93;;
31872;SDS011;22407;42.820;23.374;2023-03-19T05:01:08;24.33;;;12.85;;
31872;SDS011;22407;42.820;23.374;2023-03-19T05:03:33;21.53;;;11.47;;
31872;SDS011;22407;42.820;23.374;2023-03-19T05:05:59;18.13;;;8.70;;
31872;SDS011;22407;42.820;23.374;2023-03-19T05:08:24;17.10;;;9.10;;
31872;SDS011;22407;42.820;23.374;2023-03-19T05:10:49;17.00;;;9.30;;
31872;SDS011;22407;42.820;23.374;2023-03-19T05:13:15;15.68;;;8.15;;
31872;SDS011;22407;42.820;23.374;2023-03-19T05:15:41;14.13;;;8.03;;
31872;SDS011;22407;42.820;23.374;2023-03-19T05:18:07;15.17;;;7.27;;
31872;SDS011;22407;42.820;23.374;2023-03-19T05:20:32;13.07;;;6.55;;
31872;SDS011;22407;42.820;23.374;2023-03-19T05:22:58;12.80;;;7.47;;
31872;SDS011;22407;42.820;23.374;2023-03-19T05:25:24;15.57;;;7.77;;
31872;SDS011;22407;42.820;23.374;2023-03-19T05:27:49;13.50;;;6.80;;
31872;SDS011;22407;42.820;23.374;2023-03-19T05:30:14;13.40;;;6.30;;
31872;SDS011;22407;42.820;23.374;2023-03-19T05:32:42;17.73;;;7.50;;
31872;SDS011;22407;42.820;23.374;2023-03-19T05:35:08;20.60;;;8.30;;
31872;SDS011;22407;42.820;23.374;2023-03-19T05:37:33;18.63;;;8.17;;
31872;SDS011;22407;42.820;23.374;2023-03-19T05:39:59;24.57;;;10.57;;
31872;SDS011;22407;42.820;23.374;2023-03-19T05:42:24;27.63;;;12.60;;
31872;SDS011;22407;42.820;23.374;2023-03-19T05:44:49;43.20;;;15.47;;
31872;SDS011;22407;42.820;23.374;2023-03-19T05:47:15;38.53;;;15.52;;
31872;SDS011;22407;42.820;23.374;2023-03-19T05:49:40;35.97;;;14.60;;
31872;SDS011;22407;42.820;23.374;2023-03-19T05:52:05;38.27;;;14.97;;
31872;SDS011;22407;42.820;23.374;2023-03-19T05:54:31;37.10;;;14.53;;
31872;SDS011;22407;42.820;23.374;2023-03-19T05:56:57;26.38;;;10.68;;
31872;SDS011;22407;42.820;23.374;2023-03-19T05:59:22;26.67;;;11.13;;
31872;SDS011;22407;42.820;23.374;2023-03-19T06:01:47;28.37;;;11.83;;
31872;SDS011;22407;42.820;23.374;2023-03-19T06:04:12;30.30;;;11.97;;
31872;SDS011;22407;42.820;23.374;2023-03-19T06:06:38;28.03;;;11.83;;
31872;SDS011;22407;42.820;23.374;2023-03-19T06:09:03;29.37;;;11.87;;
31872;SDS011;22407;42.820;23.374;2023-03-19T06:11:29;26.20;;;11.60;;
31872;SDS011;22407;42.820;23.374;2023-03-19T06:13:54;23.87;;;10.67;;
31872;SDS011;22407;42.820;23.374;2023-03-19T06:16:19;23.17;;;9.90;;
31872;SDS011;22407;42.820;23.374;2023-03-19T06:18:44;21.15;;;8.82;;
31872;SDS011;22407;42.820;23.374;2023-03-19T06:21:11;18.07;;;7.63;;
31872;SDS011;22407;42.820;23.374;2023-03-19T06:23:36;20.15;;;8.32;;
31872;SDS011;22407;42.820;23.374;2023-03-19T06:26:01;20.13;;;8.53;;
31872;SDS011;22407;42.820;23.374;2023-03-19T06:28:26;18.73;;;9.17;;
31872;SDS011;22407;42.820;23.374;2023-03-19T06:30:54;19.70;;;8.63;;
31872;SDS011;22407;42.820;23.374;2023-03-19T06:33:20;24.10;;;9.87;;
31872;SDS011;22407;42.820;23.374;2023-03-19T06:35:46;27.27;;;12.02;;
31872;SDS011;22407;42.820;23.374;2023-03-19T06:38:12;27.13;;;12.00;;
31872;SDS011;22407;42.820;23.374;2023-03-19T06:40:37;26.03;;;11.60;;
31872;SDS011;22407;42.820;23.374;2023-03-19T06:43:02;27.63;;;12.00;;
31872;SDS011;22407;42.820;23.374;2023-03-19T06:45:27;26.93;;;12.20;;
31872;SDS011;22407;42.820;23.374;2023-03-19T06:47:53;21.47;;;10.37;;
31872;SDS011;22407;42.820;23.374;2023-03-19T06:50:18;24.07;;;10.40;;
31872;SDS011;22407;42.820;23.374;2023-03-19T06:52:43;28.30;;;14.43;;
31872;SDS011;22407;42.820;23.374;2023-03-19T06:55:09;30.63;;;12.15;;
31872;SDS011;22407;42.820;23.374;2023-03-19T06:57:35;22.40;;;10.03;;
31872;SDS011;22407;42.820;23.374;2023-03-19T07:00:01;22.70;;;9.57;;
31872;SDS011;22407;42.820;23.374;2023-03-19T07:02:26;21.83;;;9.83;;
31872;SDS011;22407;42.820;23.374;2023-03-19T07:04:51;18.07;;;8.63;;
31872;SDS011;22407;42.820;23.374;2023-03-19T07:07:17;18.33;;;8.83;;
31872;SDS011;22407;42.820;23.374;2023-03-19T07:09:42;21.02;;;8.77;;
31872;SDS011;22407;42.820;23.374;2023-03-19T07:12:08;21.90;;;10.17;;
31872;SDS011;22407;42.820;23.374;2023-03-19T07:14:33;15.77;;;7.23;;
31872;SDS011;22407;42.820;23.374;2023-03-19T07:16:58;18.80;;;8.20;;
31872;SDS011;22407;42.820;23.374;2023-03-19T07:19:24;15.77;;;7.18;;
31872;SDS011;22407;42.820;23.374;2023-03-19T07:21:49;18.73;;;8.13;;
31872;SDS011;22407;42.820;23.374;2023-03-19T07:24:15;20.97;;;9.63;;
31872;SDS011;22407;42.820;23.374;2023-03-19T07:26:40;18.13;;;9.50;;
31872;SDS011;22407;42.820;23.374;2023-03-19T07:29:06;18.85;;;9.70;;
31872;SDS011;22407;42.820;23.374;2023-03-19T07:31:31;26.43;;;11.93;;
31872;SDS011;22407;42.820;23.374;2023-03-19T07:33:57;18.93;;;9.70;;
31872;SDS011;22407;42.820;23.374;2023-03-19T07:36:22;19.53;;;9.40;;
31872;SDS011;22407;42.820;23.374;2023-03-19T07:38:48;16.55;;;8.88;;
31872;SDS011;22407;42.820;23.374;2023-03-19T07:41:13;20.00;;;9.27;;
31872;SDS011;22407;42.820;23.374;2023-03-19T07:43:39;18.50;;;8.10;;
31872;SDS011;22407;42.820;23.374;2023-03-19T07:46:04;19.27;;;8.25;;
31872;SDS011;22407;42.820;23.374;2023-03-19T07:48:30;20.03;;;8.83;;
31872;SDS011;22407;42.820;23.374;2023-03-19T07:50:55;16.77;;;8.60;;
31872;SDS011;22407;42.820;23.374;2023-03-19T07:53:21;18.58;;;8.48;;
31872;SDS011;22407;42.820;23.374;2023-03-19T07:55:46;19.90;;;8.97;;
31872;SDS011;22407;42.820;23.374;2023-03-19T07:58:12;19.13;;;8.37;;
31872;SDS011;22407;42.820;23.374;2023-03-19T08:00:37;17.97;;;8.47;;
31872;SDS011;22407;42.820;23.374;2023-03-19T08:03:02;21.83;;;8.20;;
31872;SDS011;22407;42.820;23.374;2023-03-19T08:05:28;18.05;;;7.50;;
31872;SDS011;22407;42.820;23.374;2023-03-19T08:07:53;17.57;;;8.50;;
31872;SDS011;22407;42.820;23.374;2023-03-19T08:10:18;17.77;;;8.60;;
31872;SDS011;22407;42.820;23.374;2023-03-19T08:12:43;19.07;;;8.50;;
31872;SDS011;22407;42.820;23.374;2023-03-19T08:15:10;17.07;;;8.10;;
31872;SDS011;22407;42.820;23.374;2023-03-19T08:17:36;16.15;;;7.45;;
31872;SDS011;22407;42.820;23.374;2023-03-19T08:20:05;20.25;;;8.40;;
31872;SDS011;22407;42.820;23.374;2023-03-19T08:22:30;15.55;;;7.85;;
31872;SDS011;22407;42.820;23.374;2023-03-19T08:24:55;17.90;;;8.47;;
31872;SDS011;22407;42.820;23.374;2023-03-19T08:27:21;17.03;;;7.93;;
31872;SDS011;22407;42.820;23.374;2023-03-19T08:29:46;14.60;;;6.90;;
31872;SDS011;22407;42.820;23.374;2023-03-19T08:32:11;15.90;;;7.80;;
31872;SDS011;22407;42.820;23.374;2023-03-19T08:34:37;15.77;;;7.60;;
31872;SDS011;22407;42.820;23.374;2023-03-19T08:37:02;21.63;;;9.80;;
31872;SDS011;22407;42.820;23.374;2023-03-19T08:39:27;15.07;;;7.73;;
31872;SDS011;22407;42.820;23.374;2023-03-19T08:41:52;17.30;;;7.77;;
31872;SDS011;22407;42.820;23.374;2023-03-19T08:44:18;15.80;;;7.00;;
31872;SDS011;22407;42.820;23.374;2023-03-19T08:46:43;13.43;;;6.20;;
31872;SDS011;22407;42.820;23.374;2023-03-19T08:49:08;16.77;;;7.97;;
31872;SDS011;22407;42.820;23.374;2023-03-19T08:51:33;16.10;;;6.83;;
31872;SDS011;22407;42.820;23.374;2023-03-19T08:53:59;12.30;;;6.83;;
31872;SDS011;22407;42.820;23.374;2023-03-19T08:56:24;15.20;;;7.50;;
31872;SDS011;22407;42.820;23.374;2023-03-19T08:58:50;14.57;;;7.57;;
31872;SDS011;22407;42.820;23.374;2023-03-19T09:01:15;15.27;;;6.73;;
31872;SDS011;22407;42.820;23.374;2023-03-19T09:03:40;14.80;;;8.40;;
31872;SDS011;22407;42.820;23.374;2023-03-19T09:06:07;14.75;;;7.07;;
31872;SDS011;22407;42.820;23.374;2023-03-19T09:08:33;14.80;;;7.47;;
31872;SDS011;22407;42.820;23.374;2023-03-19T09:10:59;25.10;;;10.75;;
31872;SDS011;22407;42.820;23.374;2023-03-19T09:13:24;16.17;;;7.93;;
31872;SDS011;22407;42.820;23.374;2023-03-19T09:15:50;14.67;;;6.80;;
31872;SDS011;22407;42.820;23.374;2023-03-19T09:18:15;14.33;;;7.07;;
31872;SDS011;22407;42.820;23.374;2023-03-19T09:20:41;16.92;;;8.00;;
31872;SDS011;22407;42.820;23.374;2023-03-19T09:23:06;12.07;;;5.67;;
31872;SDS011;22407;42.820;23.374;2023-03-19T09:25:32;11.23;;;5.57;;
31872;SDS011;22407;42.820;23.374;2023-03-19T09:27:57;12.17;;;5.80;;
31872;SDS011;22407;42.820;23.374;2023-03-19T09:30:23;10.43;;;5.37;;
31872;SDS011;22407;42.820;23.374;2023-03-19T09:32:48;9.10;;;5.03;;
31872;SDS011;22407;42.820;23.374;2023-03-19T09:35:13;10.17;;;5.13;;
31872;SDS011;22407;42.820;23.374;2023-03-19T09:37:38;10.73;;;4.93;;
31872;SDS011;22407;42.820;23.374;2023-03-19T09:40:04;9.57;;;5.07;;
31872;SDS011;22407;42.820;23.374;2023-03-19T09:42:52;11.80;;;5.40;;
31872;SDS011;22407;42.820;23.374;2023-03-19T09:45:19;10.32;;;5.15;;
31872;SDS011;22407;42.820;23.374;2023-03-19T09:47:45;10.10;;;4.97;;
31872;SDS011;22407;42.820;23.374;2023-03-19T09:50:16;11.07;;;4.88;;
31872;SDS011;22407;42.820;23.374;2023-03-19T09:57:55;9.03;;;4.93;;
31872;SDS011;22407;42.820;23.374;2023-03-19T10:00:25;8.95;;;5.03;;
31872;SDS011;22407;42.820;23.374;2023-03-19T10:08:29;10.38;;;5.07;;
31872;SDS011;22407;42.820;23.374;2023-03-19T10:14:09;9.57;;;4.32;;
31872;SDS011;22407;42.820;23.374;2023-03-19T10:16:25;8.10;;;3.80;;
31872;SDS011;22407;42.820;23.374;2023-03-19T10:18:51;9.60;;;4.63;;
31872;SDS011;22407;42.820;23.374;2023-03-19T10:23:52;9.43;;;4.90;;
31872;SDS011;22407;42.820;23.374;2023-03-19T10:26:20;10.43;;;4.80;;
31872;SDS011;22407;42.820;23.374;2023-03-19T10:36:20;8.30;;;4.00;;
31872;SDS011;22407;42.820;23.374;2023-03-19T10:38:50;9.17;;;4.77;;
31872;SDS011;22407;42.820;23.374;2023-03-19T10:41:22;9.10;;;4.38;;
31872;SDS011;22407;42.820;23.374;2023-03-19T10:43:53;7.72;;;4.22;;
31872;SDS011;22407;42.820;23.374;2023-03-19T10:46:18;9.65;;;3.58;;
31872;SDS011;22407;42.820;23.374;2023-03-19T10:48:45;8.00;;;3.83;;
31872;SDS011;22407;42.820;23.374;2023-03-19T10:51:12;6.77;;;3.20;;
31872;SDS011;22407;42.820;23.374;2023-03-19T10:53:38;12.35;;;6.88;;
31872;SDS011;22407;42.820;23.374;2023-03-19T10:56:06;7.93;;;4.17;;
31872;SDS011;22407;42.820;23.374;2023-03-19T10:58:33;8.95;;;3.60;;
31872;SDS011;22407;42.820;23.374;2023-03-19T11:01:03;8.15;;;3.42;;
31872;SDS011;22407;42.820;23.374;2023-03-19T11:08:42;7.80;;;4.10;;
31872;SDS011;22407;42.820;23.374;2023-03-19T11:11:21;9.40;;;3.65;;
31872;SDS011;22407;42.820;23.374;2023-03-19T11:13:47;8.00;;;3.10;;
31872;SDS011;22407;42.820;23.374;2023-03-19T11:16:13;7.50;;;3.33;;
31872;SDS011;22407;42.820;23.374;2023-03-19T11:18:38;7.13;;;3.90;;
31872;SDS011;22407;42.820;23.374;2023-03-19T11:21:18;6.73;;;2.83;;
31872;SDS011;22407;42.820;23.374;2023-03-19T11:23:45;6.63;;;3.00;;
31872;SDS011;22407;42.820;23.374;2023-03-19T11:26:17;6.90;;;3.67;;
31872;SDS011;22407;42.820;23.374;2023-03-19T11:28:43;8.90;;;4.13;;
31872;SDS011;22407;42.820;23.374;2023-03-19T11:31:18;6.73;;;3.30;;
31872;SDS011;22407;42.820;23.374;2023-03-19T11:36:40;5.63;;;2.88;;
31872;SDS011;22407;42.820;23.374;2023-03-19T11:39:15;5.53;;;2.80;;
31872;SDS011;22407;42.820;23.374;2023-03-19T11:44:15;5.25;;;2.58;;
31872;SDS011;22407;42.820;23.374;2023-03-19T11:46:51;6.10;;;3.03;;
31872;SDS011;22407;42.820;23.374;2023-03-19T11:54:26;6.63;;;3.43;;
31872;SDS011;22407;42.820;23.374;2023-03-19T11:56:59;7.00;;;3.35;;
31872;SDS011;22407;42.820;23.374;2023-03-19T12:17:40;7.60;;;3.30;;
31872;SDS011;22407;42.820;23.374;2023-03-19T12:20:21;6.70;;;2.67;;
31872;SDS011;22407;42.820;23.374;2023-03-19T12:27:48;7.67;;;3.63;;
31872;SDS011;22407;42.820;23.374;2023-03-19T12:35:15;10.13;;;3.90;;
31872;SDS011;22407;42.820;23.374;2023-03-19T12:37:42;9.60;;;4.80;;
31872;SDS011;22407;42.820;23.374;2023-03-19T12:42:40;6.95;;;3.38;;
31872;SDS011;22407;42.820;23.374;2023-03-19T12:45:18;8.80;;;3.80;;
31872;SDS011;22407;42.820;23.374;2023-03-19T12:47:47;6.90;;;2.97;;
31872;SDS011;22407;42.820;23.374;2023-03-19T12:50:13;6.67;;;2.90;;
31872;SDS011;22407;42.820;23.374;2023-03-19T12:52:49;7.57;;;2.90;;
31872;SDS011;22407;42.820;23.374;2023-03-19T12:55:16;7.55;;;2.95;;
31872;SDS011;22407;42.820;23.374;2023-03-19T12:57:44;7.07;;;3.00;;
31872;SDS011;22407;42.820;23.374;2023-03-19T13:02:54;6.53;;;2.70;;
31872;SDS011;22407;42.820;23.374;2023-03-19T13:05:30;13.00;;;6.00;;
31872;SDS011;22407;42.820;23.374;2023-03-19T13:08:09;8.25;;;4.40;;
31872;SDS011;22407;42.820;23.374;2023-03-19T13:10:36;5.57;;;2.10;;
31872;SDS011;22407;42.820;23.374;2023-03-19T13:13:04;7.23;;;3.00;;
31872;SDS011;22407;42.820;23.374;2023-03-19T13:15:35;7.05;;;2.83;;
31872;SDS011;22407;42.820;23.374;2023-03-19T13:18:03;5.03;;;2.25;;
31872;SDS011;22407;42.820;23.374;2023-03-19T13:23:13;5.68;;;2.28;;
31872;SDS011;22407;42.820;23.374;2023-03-19T13:25:42;6.03;;;2.80;;
31872;SDS011;22407;42.820;23.374;2023-03-19T13:28:09;6.03;;;2.85;;
31872;SDS011;22407;42.820;23.374;2023-03-19T13:30:34;8.05;;;3.28;;
31872;SDS011;22407;42.820;23.374;2023-03-19T13:33:04;6.90;;;3.10;;
31872;SDS011;22407;42.820;23.374;2023-03-19T13:35:37;7.10;;;3.90;;
31872;SDS011;22407;42.820;23.374;2023-03-19T13:48:37;5.68;;;2.90;;
31872;SDS011;22407;42.820;23.374;2023-03-19T13:56:04;5.47;;;2.20;;
31872;SDS011;22407;42.820;23.374;2023-03-19T13:58:29;5.78;;;2.35;;
31872;SDS011;22407;42.820;23.374;2023-03-19T14:03:53;5.28;;;2.08;;
31872;SDS011;22407;42.820;23.374;2023-03-19T14:06:30;5.93;;;2.20;;
31872;SDS011;22407;42.820;23.374;2023-03-19T14:08:57;5.80;;;2.07;;
31872;SDS011;22407;42.820;23.374;2023-03-19T14:11:23;4.97;;;1.95;;
31872;SDS011;22407;42.820;23.374;2023-03-19T14:13:49;5.90;;;2.75;;
31872;SDS011;22407;42.820;23.374;2023-03-19T14:16:16;8.40;;;3.20;;
31872;SDS011;22407;42.820;23.374;2023-03-19T14:18:43;5.93;;;1.93;;
31872;SDS011;22407;42.820;23.374;2023-03-19T14:21:30;4.95;;;1.80;;
31872;SDS011;22407;42.820;23.374;2023-03-19T14:23:54;6.18;;;2.80;;
31872;SDS011;22407;42.820;23.374;2023-03-19T14:26:22;5.95;;;2.17;;
31872;SDS011;22407;42.820;23.374;2023-03-19T14:31:28;6.10;;;3.08;;
31872;SDS011;22407;42.820;23.374;2023-03-19T14:36:26;5.22;;;2.38;;
31872;SDS011;22407;42.820;23.374;2023-03-19T14:38:53;5.97;;;2.07;;
31872;SDS011;22407;42.820;23.374;2023-03-19T14:41:20;4.97;;;2.00;;
31872;SDS011;22407;42.820;23.374;2023-03-19T14:53:57;5.03;;;2.47;;
31872;SDS011;22407;42.820;23.374;2023-03-19T14:56:31;6.95;;;4.00;;
31872;SDS011;22407;42.820;23.374;2023-03-19T14:58:57;7.22;;;4.05;;
31872;SDS011;22407;42.820;23.374;2023-03-19T15:01:24;7.10;;;3.28;;
31872;SDS011;22407;42.820;23.374;2023-03-19T15:03:54;10.60;;;4.70;;
31872;SDS011;22407;42.820;23.374;2023-03-19T15:06:20;7.13;;;3.17;;
31872;SDS011;22407;42.820;23.374;2023-03-19T15:08:45;7.72;;;3.03;;
31872;SDS011;22407;42.820;23.374;2023-03-19T15:18:33;7.47;;;3.20;;
31872;SDS011;22407;42.820;23.374;2023-03-19T15:20:59;8.30;;;3.03;;
31872;SDS011;22407;42.820;23.374;2023-03-19T15:23:26;7.00;;;3.00;;
31872;SDS011;22407;42.820;23.374;2023-03-19T15:25:53;10.70;;;5.73;;
31872;SDS011;22407;42.820;23.374;2023-03-19T15:28:25;7.73;;;3.80;;
31872;SDS011;22407;42.820;23.374;2023-03-19T15:31:23;10.07;;;3.72;;
31872;SDS011;22407;42.820;23.374;2023-03-19T15:33:42;8.98;;;4.13;;
31872;SDS011;22407;42.820;23.374;2023-03-19T15:36:12;8.63;;;3.97;;
31872;SDS011;22407;42.820;23.374;2023-03-19T15:38:39;12.63;;;4.70;;
31872;SDS011;22407;42.820;23.374;2023-03-19T15:41:06;8.50;;;3.53;;
31872;SDS011;22407;42.820;23.374;2023-03-19T15:43:33;18.83;;;7.43;;
31872;SDS011;22407;42.820;23.374;2023-03-19T15:46:00;9.38;;;3.55;;
31872;SDS011;22407;42.820;23.374;2023-03-19T15:49:00;21.83;;;8.50;;
31872;SDS011;22407;42.820;23.374;2023-03-19T15:51:17;18.75;;;8.25;;
31872;SDS011;22407;42.820;23.374;2023-03-19T15:53:43;25.27;;;11.30;;
31872;SDS011;22407;42.820;23.374;2023-03-19T15:56:10;9.07;;;4.10;;
31872;SDS011;22407;42.820;23.374;2023-03-19T15:58:37;12.40;;;5.10;;
31872;SDS011;22407;42.820;23.374;2023-03-19T16:01:05;8.57;;;3.65;;
31872;SDS011;22407;42.820;23.374;2023-03-19T16:03:33;6.93;;;2.80;;
31872;SDS011;22407;42.820;23.374;2023-03-19T16:06:20;11.52;;;5.07;;
31872;SDS011;22407;42.820;23.374;2023-03-19T16:08:46;13.00;;;5.90;;
31872;SDS011;22407;42.820;23.374;2023-03-19T16:11:13;14.13;;;6.50;;
31872;SDS011;22407;42.820;23.374;2023-03-19T16:13:40;51.70;;;15.13;;
31872;SDS011;22407;42.820;23.374;2023-03-19T16:16:06;72.50;;;19.67;;
31872;SDS011;22407;42.820;23.374;2023-03-19T16:21:28;30.67;;;14.70;;
31872;SDS011;22407;42.820;23.374;2023-03-19T16:24:01;24.23;;;8.43;;